createdAt,value
2023-05-02T00:00:57.080Z,571.00
2023-05-02T00:01:57.149Z,570.00
2023-05-02T00:02:57.244Z,569.00
2023-05-02T00:03:57.146Z,570.00
2023-05-02T00:04:57.079Z,570.00
2023-05-02T00:05:57.072Z,573.00
2023-05-02T00:06:57.161Z,570.00
2023-05-02T00:07:57.036Z,571.00
2023-05-02T00:08:57.071Z,569.00
2023-05-02T00:09:57.074Z,569.00
2023-05-02T00:10:57.063Z,571.00
2023-05-02T00:11:57.074Z,574.00
2023-05-02T00:12:57.056Z,575.00
2023-05-02T00:13:57.040Z,574.00
2023-05-02T00:14:57.049Z,573.00
2023-05-02T00:15:57.062Z,575.00
2023-05-02T00:16:57.137Z,576.00
2023-05-02T00:17:57.179Z,577.00
2023-05-02T00:18:57.084Z,578.00
2023-05-02T00:19:57.334Z,575.00
2023-05-02T00:20:57.069Z,572.00
2023-05-02T00:21:57.073Z,571.00
2023-05-02T00:22:57.039Z,571.00
2023-05-02T00:23:57.049Z,571.00
2023-05-02T00:24:57.080Z,571.00
2023-05-02T00:25:57.029Z,572.00
2023-05-02T00:26:57.059Z,572.00
2023-05-02T00:27:57.055Z,572.00
2023-05-02T00:28:57.050Z,572.00
2023-05-02T00:29:57.188Z,569.00
2023-05-02T00:30:57.043Z,569.00
2023-05-02T00:31:57.030Z,569.00
2023-05-02T00:32:57.101Z,568.00
2023-05-02T00:33:57.027Z,570.00
2023-05-02T00:34:57.013Z,572.00
2023-05-02T00:35:56.998Z,572.00
2023-05-02T00:36:57.041Z,573.00
2023-05-02T00:37:57.008Z,573.00
2023-05-02T00:38:57.024Z,576.00
2023-05-02T00:39:57.206Z,574.00
2023-05-02T00:40:57.041Z,577.00
2023-05-02T00:41:56.988Z,577.00
2023-05-02T00:42:56.996Z,576.00
2023-05-02T00:43:56.980Z,575.00
2023-05-02T00:44:57.005Z,576.00
2023-05-02T00:45:56.986Z,576.00
2023-05-02T00:46:57.219Z,578.00
2023-05-02T00:47:57.068Z,578.00
2023-05-02T00:48:57.017Z,575.00
2023-05-02T00:49:57.122Z,572.00
2023-05-02T00:50:56.989Z,571.00
2023-05-02T00:51:56.990Z,570.00
2023-05-02T00:52:56.999Z,571.00
2023-05-02T00:53:56.976Z,572.00
2023-05-02T00:54:56.977Z,572.00
2023-05-02T00:55:56.991Z,571.00
2023-05-02T00:56:56.975Z,570.00
2023-05-02T00:57:56.981Z,572.00
2023-05-02T00:58:56.986Z,573.00
2023-05-02T00:59:57.081Z,574.00
2023-05-02T01:00:56.964Z,575.00
2023-05-02T01:01:57.088Z,574.00
2023-05-02T01:02:57.056Z,571.00
2023-05-02T01:03:57.072Z,569.00
2023-05-02T01:04:56.940Z,570.00
2023-05-02T01:05:56.950Z,571.00
2023-05-02T01:06:56.928Z,570.00
2023-05-02T01:07:56.910Z,573.00
2023-05-02T01:08:56.950Z,574.00
2023-05-02T01:09:57.130Z,576.00
2023-05-02T01:10:56.925Z,576.00
2023-05-02T01:11:56.931Z,575.00
2023-05-02T01:12:56.931Z,577.00
2023-05-02T01:13:56.919Z,581.00
2023-05-02T01:14:56.912Z,579.00
2023-05-02T01:15:56.992Z,578.00
2023-05-02T01:16:56.966Z,578.00
2023-05-02T01:17:56.975Z,579.00
2023-05-02T01:18:56.919Z,577.00
2023-05-02T01:19:56.956Z,577.00
2023-05-02T01:20:56.912Z,577.00
2023-05-02T01:21:56.895Z,576.00
2023-05-02T01:22:56.901Z,579.00
2023-05-02T01:23:56.902Z,581.00
2023-05-02T01:24:56.892Z,579.00
2023-05-02T01:25:56.879Z,581.00
2023-05-02T01:26:56.884Z,577.00
2023-05-02T01:27:56.911Z,580.00
2023-05-02T01:28:56.908Z,577.00
2023-05-02T01:29:56.955Z,573.00
2023-05-02T01:30:56.910Z,576.00
2023-05-02T01:31:56.972Z,576.00
2023-05-02T01:32:56.967Z,575.00
2023-05-02T01:33:56.921Z,575.00
2023-05-02T01:34:56.919Z,576.00
2023-05-02T01:35:56.903Z,575.00
2023-05-02T01:36:56.884Z,575.00
2023-05-02T01:37:56.886Z,574.00
2023-05-02T01:38:56.910Z,571.00
2023-05-02T01:39:56.980Z,571.00
2023-05-02T01:40:56.910Z,572.00
2023-05-02T01:41:56.866Z,572.00
2023-05-02T01:42:56.890Z,573.00
2023-05-02T01:43:56.883Z,571.00
2023-05-02T01:44:56.936Z,572.00
2023-05-02T01:45:56.915Z,574.00
2023-05-02T01:46:56.934Z,576.00
2023-05-02T01:47:56.947Z,576.00
2023-05-02T01:48:56.918Z,577.00
2023-05-02T01:49:56.963Z,578.00
2023-05-02T01:50:56.905Z,579.00
2023-05-02T01:51:56.905Z,579.00
2023-05-02T01:52:56.898Z,580.00
2023-05-02T01:53:56.904Z,582.00
2023-05-02T01:54:56.900Z,580.00
2023-05-02T01:55:56.892Z,577.00
2023-05-02T01:56:56.909Z,575.00
2023-05-02T01:57:56.889Z,574.00
2023-05-02T01:58:56.896Z,575.00
2023-05-02T01:59:57.010Z,575.00
2023-05-02T02:00:56.978Z,572.00
2023-05-02T02:01:56.885Z,574.00
2023-05-02T02:02:56.955Z,574.00
2023-05-02T02:03:56.946Z,574.00
2023-05-02T02:04:56.897Z,577.00
2023-05-02T02:05:56.876Z,578.00
2023-05-02T02:06:56.896Z,580.00
2023-05-02T02:07:56.903Z,582.00
2023-05-02T02:08:56.907Z,582.00
2023-05-02T02:09:56.886Z,577.00
2023-05-02T02:10:56.881Z,575.00
2023-05-02T02:11:56.883Z,573.00
2023-05-02T02:12:56.901Z,575.00
2023-05-02T02:13:56.907Z,573.00
2023-05-02T02:14:56.911Z,574.00
2023-05-02T02:15:56.926Z,573.00
2023-05-02T02:16:56.939Z,573.00
2023-05-02T02:17:56.948Z,573.00
2023-05-02T02:18:56.877Z,573.00
2023-05-02T02:19:57.068Z,575.00
2023-05-02T02:20:56.898Z,577.00
2023-05-02T02:21:56.894Z,575.00
2023-05-02T02:22:56.913Z,579.00
2023-05-02T02:23:56.852Z,576.00
2023-05-02T02:24:56.856Z,574.00
2023-05-02T02:25:57.021Z,575.00
2023-05-02T02:26:56.900Z,573.00
2023-05-02T02:27:56.857Z,571.00
2023-05-02T02:28:56.855Z,570.00
2023-05-02T02:29:56.879Z,570.00
2023-05-02T02:30:56.871Z,572.00
2023-05-02T02:31:56.872Z,571.00
2023-05-02T02:32:56.881Z,566.00
2023-05-02T02:33:56.873Z,570.00
2023-05-02T02:34:56.861Z,574.00
2023-05-02T02:35:56.843Z,573.00
2023-05-02T02:36:56.861Z,573.00
2023-05-02T02:37:56.864Z,574.00
2023-05-02T02:38:56.880Z,573.00
2023-05-02T02:39:56.950Z,574.00
2023-05-02T02:40:56.891Z,572.00
2023-05-02T02:41:56.870Z,572.00
2023-05-02T02:42:56.860Z,573.00
2023-05-02T02:43:56.894Z,573.00
2023-05-02T02:44:56.913Z,573.00
2023-05-02T02:45:56.920Z,572.00
2023-05-02T02:46:56.895Z,572.00
2023-05-02T02:47:56.912Z,576.00
2023-05-02T02:48:56.910Z,575.00
2023-05-02T02:49:56.928Z,574.00
2023-05-02T02:50:56.870Z,573.00
2023-05-02T02:51:56.915Z,573.00
2023-05-02T02:52:56.916Z,572.00
2023-05-02T02:53:56.922Z,571.00
2023-05-02T02:54:56.902Z,574.00
2023-05-02T02:55:56.884Z,574.00
2023-05-02T02:56:56.882Z,576.00
2023-05-02T02:57:56.902Z,577.00
2023-05-02T02:58:56.901Z,576.00
2023-05-02T02:59:56.975Z,576.00
2023-05-02T03:00:56.925Z,577.00
2023-05-02T03:01:56.948Z,576.00
2023-05-02T03:02:56.981Z,576.00
2023-05-02T03:03:56.914Z,575.00
2023-05-02T03:04:56.909Z,573.00
2023-05-02T03:05:56.912Z,575.00
2023-05-02T03:06:56.922Z,577.00
2023-05-02T03:07:56.896Z,576.00
2023-05-02T03:08:56.928Z,574.00
2023-05-02T03:09:56.938Z,576.00
2023-05-02T03:10:56.929Z,580.00
2023-05-02T03:11:56.916Z,577.00
2023-05-02T03:12:56.931Z,577.00
2023-05-02T03:13:56.949Z,576.00
2023-05-02T03:14:56.956Z,578.00
2023-05-02T03:15:56.965Z,579.00
2023-05-02T03:16:57.037Z,580.00
2023-05-02T03:17:56.987Z,577.00
2023-05-02T03:18:56.953Z,577.00
2023-05-02T03:19:57.065Z,576.00
2023-05-02T03:20:56.927Z,574.00
2023-05-02T03:21:56.959Z,575.00
2023-05-02T03:22:56.923Z,574.00
2023-05-02T03:23:56.901Z,575.00
2023-05-02T03:24:56.919Z,574.00
2023-05-02T03:25:56.912Z,572.00
2023-05-02T03:26:56.946Z,572.00
2023-05-02T03:27:56.941Z,572.00
2023-05-02T03:28:56.909Z,572.00
2023-05-02T03:29:57.040Z,572.00
2023-05-02T03:30:56.923Z,573.00
2023-05-02T03:31:56.954Z,572.00
2023-05-02T03:32:57.102Z,573.00
2023-05-02T03:33:56.951Z,572.00
2023-05-02T03:34:56.974Z,571.00
2023-05-02T03:35:56.958Z,571.00
2023-05-02T03:36:56.980Z,571.00
2023-05-02T03:37:56.981Z,575.00
2023-05-02T03:38:56.985Z,573.00
2023-05-02T03:39:56.961Z,574.00
2023-05-02T03:40:56.979Z,573.00
2023-05-02T03:41:56.946Z,574.00
2023-05-02T03:42:56.966Z,575.00
2023-05-02T03:43:56.987Z,574.00
2023-05-02T03:44:56.964Z,574.00
2023-05-02T03:45:56.983Z,575.00
2023-05-02T03:46:57.017Z,575.00
2023-05-02T03:47:57.069Z,575.00
2023-05-02T03:48:56.992Z,572.00
2023-05-02T03:49:57.029Z,570.00
2023-05-02T03:50:56.967Z,572.00
2023-05-02T03:51:56.979Z,572.00
2023-05-02T03:52:56.974Z,573.00
2023-05-02T03:53:56.991Z,574.00
2023-05-02T03:54:56.993Z,576.00
2023-05-02T03:55:57.022Z,573.00
2023-05-02T03:56:56.997Z,575.00
2023-05-02T03:57:56.983Z,574.00
2023-05-02T03:58:56.978Z,573.00
2023-05-02T03:59:57.126Z,573.00
2023-05-02T04:00:57.004Z,573.00
2023-05-02T04:01:57.001Z,572.00
2023-05-02T04:02:57.076Z,571.00
2023-05-02T04:03:57.054Z,569.00
2023-05-02T04:04:57.001Z,567.00
2023-05-02T04:05:56.983Z,569.00
2023-05-02T04:06:57.009Z,570.00
2023-05-02T04:07:56.989Z,575.00
2023-05-02T04:08:56.995Z,577.00
2023-05-02T04:09:57.071Z,577.00
2023-05-02T04:10:57.002Z,578.00
2023-05-02T04:11:57.010Z,575.00
2023-05-02T04:12:57.035Z,572.00
2023-05-02T04:13:57.085Z,572.00
2023-05-02T04:14:57.113Z,570.00
2023-05-02T04:15:57.158Z,571.00
2023-05-02T04:16:57.306Z,573.00
2023-05-02T04:17:57.252Z,571.00
2023-05-02T04:18:57.285Z,570.00
2023-05-02T04:19:57.411Z,574.00
2023-05-02T04:20:57.430Z,576.00
2023-05-02T04:21:57.517Z,577.00
2023-05-02T04:22:57.543Z,576.00
2023-05-02T04:23:57.642Z,575.00
2023-05-02T04:24:57.693Z,576.00
2023-05-02T04:25:57.765Z,577.00
2023-05-02T04:26:57.789Z,576.00
2023-05-02T04:27:57.855Z,576.00
2023-05-02T04:28:57.934Z,577.00
2023-05-02T04:29:58.267Z,575.00
2023-05-02T04:30:58.080Z,574.00
2023-05-02T04:31:58.063Z,575.00
2023-05-02T04:32:58.198Z,574.00
2023-05-02T04:33:58.194Z,573.00
2023-05-02T04:34:58.225Z,572.00
2023-05-02T04:35:58.283Z,571.00
2023-05-02T04:36:58.355Z,570.00
2023-05-02T04:37:58.377Z,571.00
2023-05-02T04:38:58.467Z,572.00
2023-05-02T04:39:58.646Z,575.00
2023-05-02T04:40:58.533Z,576.00
2023-05-02T04:41:58.585Z,574.00
2023-05-02T04:42:58.632Z,573.00
2023-05-02T04:43:58.668Z,573.00
2023-05-02T04:44:58.745Z,575.00
2023-05-02T04:45:58.912Z,574.00
2023-05-02T04:46:58.796Z,572.00
2023-05-02T04:47:58.892Z,573.00
2023-05-02T04:48:58.891Z,571.00
2023-05-02T04:49:59.212Z,571.00
2023-05-02T04:50:59.000Z,571.00
2023-05-02T04:51:59.062Z,573.00
2023-05-02T04:52:59.071Z,574.00
2023-05-02T04:53:59.139Z,573.00
2023-05-02T04:54:59.149Z,573.00
2023-05-02T04:55:59.189Z,573.00
2023-05-02T04:56:59.261Z,574.00
2023-05-02T04:57:59.287Z,574.00
2023-05-02T04:58:59.359Z,573.00
2023-05-02T04:59:59.736Z,576.00
2023-05-02T05:01:08.150Z,575.00
2023-05-02T05:01:59.496Z,577.00
2023-05-02T05:03:01.710Z,576.00
2023-05-02T05:03:59.776Z,573.00
2023-05-02T05:04:59.776Z,572.00
2023-05-02T05:05:59.887Z,572.00
2023-05-02T05:06:59.909Z,571.00
2023-05-02T05:07:59.984Z,569.00
2023-05-02T05:08:59.936Z,569.00
2023-05-02T05:10:00.343Z,565.00
2023-05-02T05:11:00.032Z,564.00
2023-05-02T05:12:00.074Z,568.00
2023-05-02T05:13:00.122Z,570.00
2023-05-02T05:14:00.175Z,570.00
2023-05-02T05:15:00.246Z,570.00
2023-05-02T05:16:00.370Z,569.00
2023-05-02T05:17:00.332Z,571.00
2023-05-02T05:18:00.377Z,571.00
2023-05-02T05:19:00.432Z,571.00
2023-05-02T05:20:00.808Z,571.00
2023-05-02T05:21:00.506Z,572.00
2023-05-02T05:22:00.550Z,573.00
2023-05-02T05:23:00.592Z,575.00
2023-05-02T05:24:00.633Z,576.00
2023-05-02T05:25:00.705Z,574.00
2023-05-02T05:26:00.730Z,576.00
2023-05-02T05:27:00.808Z,575.00
2023-05-02T05:28:00.845Z,577.00
2023-05-02T05:29:00.861Z,578.00
2023-05-02T05:30:01.195Z,577.00
2023-05-02T05:31:00.982Z,582.00
2023-05-02T05:32:01.108Z,583.00
2023-05-02T05:33:01.199Z,586.00
2023-05-02T05:34:01.592Z,586.00
2023-05-02T05:35:01.204Z,585.00
2023-05-02T05:36:01.273Z,583.00
2023-05-02T05:37:01.371Z,624.00
2023-05-02T05:38:01.401Z,635.00
2023-05-02T05:39:01.544Z,682.00
2023-05-02T05:40:01.603Z,758.00
2023-05-02T05:41:01.440Z,709.00
2023-05-02T05:42:01.456Z,707.00
2023-05-02T05:43:01.436Z,719.00
2023-05-02T05:44:01.414Z,810.00
2023-05-02T05:45:01.431Z,878.00
2023-05-02T05:46:08.503Z,860.00
2023-05-02T05:47:01.496Z,854.00
2023-05-02T05:48:01.466Z,872.00
2023-05-02T05:49:01.460Z,878.00
2023-05-02T05:50:01.896Z,874.00
2023-05-02T05:51:01.494Z,870.00
2023-05-02T05:52:01.416Z,864.00
2023-05-02T05:53:01.430Z,1059.00
2023-05-02T05:54:01.428Z,937.00
2023-05-02T05:55:01.405Z,921.00
2023-05-02T05:56:01.390Z,922.00
2023-05-02T05:57:01.402Z,922.00
2023-05-02T05:58:01.376Z,940.00
2023-05-02T05:59:01.356Z,962.00
2023-05-02T06:00:01.767Z,1004.00
2023-05-02T06:01:01.385Z,1036.00
2023-05-02T06:02:01.424Z,1042.00
2023-05-02T06:03:01.581Z,1031.00
2023-05-02T06:04:01.416Z,1042.00
2023-05-02T06:05:01.797Z,1044.00
2023-05-02T06:06:01.360Z,1089.00
2023-05-02T06:07:01.323Z,1093.00
2023-05-02T06:08:01.328Z,1077.00
2023-05-02T06:09:01.315Z,1098.00
2023-05-02T06:10:01.579Z,1098.00
2023-05-02T06:11:01.380Z,1089.00
2023-05-02T06:12:01.299Z,1084.00
2023-05-02T06:13:01.319Z,1100.00
2023-05-02T06:14:01.344Z,1108.00
2023-05-02T06:15:01.562Z,1105.00
2023-05-02T06:16:01.459Z,1063.00
2023-05-02T06:17:01.478Z,1062.00
2023-05-02T06:18:01.538Z,1064.00
2023-05-02T06:19:01.536Z,1061.00
2023-05-02T06:20:01.920Z,1065.00
2023-05-02T06:21:01.594Z,1062.00
2023-05-02T06:22:01.657Z,1140.00
2023-05-02T06:23:01.676Z,1142.00
2023-05-02T06:24:01.669Z,1149.00
2023-05-02T06:25:01.784Z,1165.00
2023-05-02T06:26:01.736Z,1164.00
2023-05-02T06:27:01.819Z,1168.00
2023-05-02T06:28:01.881Z,1171.00
2023-05-02T06:29:01.917Z,1165.00
2023-05-02T06:30:02.586Z,1148.00
2023-05-02T06:31:02.139Z,1145.00
2023-05-02T06:32:02.134Z,1121.00
2023-05-02T06:33:02.129Z,1139.00
2023-05-02T06:34:02.109Z,1144.00
2023-05-02T06:35:02.217Z,1146.00
2023-05-02T06:36:02.537Z,1086.00
2023-05-02T06:37:02.246Z,1120.00
2023-05-02T06:38:02.390Z,1088.00
2023-05-02T06:39:02.346Z,1353.00
2023-05-02T06:40:02.745Z,1081.00
2023-05-02T06:41:02.439Z,1074.00
2023-05-02T06:42:02.515Z,1083.00
2023-05-02T06:43:02.562Z,1105.00
2023-05-02T06:44:02.592Z,1118.00
2023-05-02T06:45:02.627Z,1134.00
2023-05-02T06:46:02.722Z,1172.00
2023-05-02T06:47:02.744Z,1189.00
2023-05-02T06:48:02.830Z,1212.00
2023-05-02T06:49:02.806Z,1212.00
2023-05-02T06:50:03.045Z,1216.00
2023-05-02T06:51:02.900Z,1222.00
2023-05-02T06:52:02.961Z,1132.00
2023-05-02T06:53:02.986Z,1170.00
2023-05-02T06:54:03.111Z,1275.00
2023-05-02T06:55:03.578Z,1268.00
2023-05-02T06:56:03.170Z,1277.00
2023-05-02T06:57:03.230Z,1283.00
2023-05-02T06:58:03.298Z,1203.00
2023-05-02T06:59:03.328Z,1252.00
2023-05-02T07:00:03.556Z,1292.00
2023-05-02T07:01:03.465Z,1294.00
2023-05-02T07:02:05.314Z,1303.00
2023-05-02T07:03:03.451Z,1303.00
2023-05-02T07:04:03.495Z,1280.00
2023-05-02T07:05:03.592Z,1288.00
2023-05-02T07:06:03.658Z,1300.00
2023-05-02T07:07:03.636Z,1296.00
2023-05-02T07:08:03.652Z,1300.00
2023-05-02T07:09:03.701Z,1298.00
2023-05-02T07:10:04.063Z,1227.00
2023-05-02T07:11:03.833Z,1307.00
2023-05-02T07:12:06.607Z,1316.00
2023-05-02T07:13:03.847Z,1303.00
2023-05-02T07:14:03.885Z,1305.00
2023-05-02T07:15:04.094Z,1314.00
2023-05-02T07:16:03.859Z,1386.00
2023-05-02T07:17:04.544Z,1409.00
2023-05-02T07:18:03.875Z,1431.00
2023-05-02T07:19:03.813Z,1457.00
2023-05-02T07:20:04.174Z,1466.00
2023-05-02T07:21:03.763Z,1477.00
2023-05-02T07:22:03.753Z,1480.00
2023-05-02T07:23:03.779Z,1483.00
2023-05-02T07:24:03.757Z,1490.00
2023-05-02T07:25:04.098Z,1496.00
2023-05-02T07:26:06.152Z,1505.00
2023-05-02T07:27:03.876Z,1571.00
2023-05-02T07:28:04.001Z,1587.00
2023-05-02T07:29:03.918Z,1581.00
2023-05-02T07:30:04.102Z,1573.00
2023-05-02T07:31:04.847Z,1633.00
2023-05-02T07:32:03.917Z,1615.00
2023-05-02T07:33:03.948Z,1619.00
2023-05-02T07:34:03.922Z,1537.00
2023-05-02T07:35:04.104Z,1642.00
2023-05-02T07:36:03.961Z,1508.00
2023-05-02T07:37:03.999Z,1502.00
2023-05-02T07:38:03.936Z,1650.00
2023-05-02T07:39:03.988Z,1614.00
2023-05-02T07:40:04.225Z,1572.00
2023-05-02T07:41:04.093Z,1357.00
2023-05-02T07:42:04.038Z,1364.00
2023-05-02T07:43:04.088Z,1372.00
2023-05-02T07:44:04.091Z,1175.00
2023-05-02T07:45:04.130Z,1194.00
2023-05-02T07:46:04.225Z,1047.00
2023-05-02T07:47:04.258Z,898.00
2023-05-02T07:48:04.502Z,893.00
2023-05-02T07:49:04.364Z,890.00
2023-05-02T07:50:04.514Z,949.00
2023-05-02T07:51:04.390Z,858.00
2023-05-02T07:52:04.401Z,842.00
2023-05-02T07:53:04.395Z,820.00
2023-05-02T07:54:04.362Z,828.00
2023-05-02T07:55:04.419Z,834.00
2023-05-02T07:56:04.628Z,825.00
2023-05-02T07:57:04.427Z,818.00
2023-05-02T07:58:04.449Z,812.00
2023-05-02T07:59:05.668Z,809.00
2023-05-02T08:00:04.643Z,809.00
2023-05-02T08:01:04.494Z,901.00
2023-05-02T08:02:04.459Z,864.00
2023-05-02T08:03:04.541Z,843.00
2023-05-02T08:04:04.669Z,853.00
2023-05-02T08:05:04.542Z,837.00
2023-05-02T08:06:04.513Z,793.00
2023-05-02T08:07:04.463Z,823.00
2023-05-02T08:08:04.467Z,806.00
2023-05-02T08:09:04.482Z,816.00
2023-05-02T08:10:04.570Z,813.00
2023-05-02T08:11:04.455Z,818.00
2023-05-02T08:12:04.449Z,819.00
2023-05-02T08:13:04.480Z,817.00
2023-05-02T08:14:04.456Z,816.00
2023-05-02T08:15:04.438Z,813.00
2023-05-02T08:16:04.559Z,810.00
2023-05-02T08:17:04.503Z,780.00
2023-05-02T08:18:04.488Z,786.00
2023-05-02T08:19:04.489Z,779.00
2023-05-02T08:20:04.442Z,778.00
2023-05-02T08:21:04.467Z,777.00
2023-05-02T08:22:04.471Z,773.00
2023-05-02T08:23:04.490Z,777.00
2023-05-02T08:24:04.511Z,777.00
2023-05-02T08:25:04.524Z,749.00
2023-05-02T08:26:04.488Z,727.00
2023-05-02T08:27:04.497Z,732.00
2023-05-02T08:28:04.510Z,739.00
2023-05-02T08:29:04.517Z,750.00
2023-05-02T08:30:04.636Z,758.00
2023-05-02T08:31:04.542Z,795.00
2023-05-02T08:32:04.719Z,874.00
2023-05-02T08:33:04.599Z,911.00
2023-05-02T08:34:04.590Z,930.00
2023-05-02T08:35:04.607Z,1002.00
2023-05-02T08:36:04.639Z,987.00
2023-05-02T08:37:04.576Z,1012.00
2023-05-02T08:38:04.622Z,1059.00
2023-05-02T08:39:04.661Z,1056.00
2023-05-02T08:40:04.780Z,1054.00
2023-05-02T08:41:05.123Z,1104.00
2023-05-02T08:42:04.801Z,1051.00
2023-05-02T08:43:04.888Z,1029.00
2023-05-02T08:44:04.922Z,1027.00
2023-05-02T08:45:04.953Z,1019.00
2023-05-02T08:46:05.075Z,1008.00
2023-05-02T08:47:05.111Z,1004.00
2023-05-02T08:48:05.197Z,999.00
2023-05-02T08:49:05.214Z,1060.00
2023-05-02T08:50:05.269Z,1078.00
2023-05-02T08:51:05.322Z,1042.00
2023-05-02T08:52:05.389Z,1062.00
2023-05-02T08:53:05.514Z,1055.00
2023-05-02T08:54:05.498Z,1055.00
2023-05-02T08:55:05.561Z,1045.00
2023-05-02T08:56:05.629Z,1004.00
2023-05-02T08:57:05.671Z,885.00
2023-05-02T08:58:05.708Z,870.00
2023-05-02T08:59:05.679Z,879.00
2023-05-02T09:00:05.714Z,865.00
2023-05-02T09:01:06.160Z,849.00
2023-05-02T09:02:05.758Z,834.00
2023-05-02T09:03:05.845Z,826.00
2023-05-02T09:04:05.878Z,809.00
2023-05-02T09:05:05.869Z,775.00
2023-05-02T09:06:05.909Z,781.00
2023-05-02T09:07:05.903Z,814.00
2023-05-02T09:08:05.925Z,803.00
2023-05-02T09:09:06.016Z,763.00
2023-05-02T09:10:06.055Z,764.00
2023-05-02T09:11:06.082Z,786.00
2023-05-02T09:12:06.196Z,789.00
2023-05-02T09:13:06.155Z,785.00
2023-05-02T09:14:06.181Z,926.00
2023-05-02T09:15:06.216Z,827.00
2023-05-02T09:16:06.271Z,819.00
2023-05-02T09:17:06.339Z,811.00
2023-05-02T09:18:06.266Z,808.00
2023-05-02T09:19:06.231Z,820.00
2023-05-02T09:20:06.450Z,888.00
2023-05-02T09:21:06.647Z,899.00
2023-05-02T09:22:06.318Z,891.00
2023-05-02T09:23:06.306Z,885.00
2023-05-02T09:24:06.259Z,887.00
2023-05-02T09:25:06.260Z,886.00
2023-05-02T09:26:06.274Z,883.00
2023-05-02T09:27:06.278Z,880.00
2023-05-02T09:28:06.292Z,914.00
2023-05-02T09:29:06.269Z,826.00
2023-05-02T09:30:06.337Z,838.00
2023-05-02T09:31:06.335Z,849.00
2023-05-02T09:32:06.321Z,858.00
2023-05-02T09:33:06.308Z,848.00
2023-05-02T09:34:06.247Z,847.00
2023-05-02T09:35:06.296Z,854.00
2023-05-02T09:36:06.452Z,913.00
2023-05-02T09:37:06.275Z,863.00
2023-05-02T09:38:06.369Z,874.00
2023-05-02T09:39:06.389Z,890.00
2023-05-02T09:40:06.334Z,907.00
2023-05-02T09:41:06.673Z,1007.00
2023-05-02T09:42:06.368Z,1179.00
2023-05-02T09:43:06.396Z,1022.00
2023-05-02T09:44:06.461Z,1038.00
2023-05-02T09:45:06.440Z,1028.00
2023-05-02T09:46:06.511Z,1042.00
2023-05-02T09:47:06.486Z,922.00
2023-05-02T09:48:06.487Z,870.00
2023-05-02T09:49:06.427Z,842.00
2023-05-02T09:50:06.439Z,834.00
2023-05-02T09:51:06.425Z,826.00
2023-05-02T09:52:06.453Z,819.00
2023-05-02T09:53:06.464Z,741.00
2023-05-02T09:54:06.468Z,738.00
2023-05-02T09:55:06.503Z,727.00
2023-05-02T09:56:06.545Z,696.00
2023-05-02T09:57:06.563Z,674.00
2023-05-02T09:58:06.620Z,665.00
2023-05-02T09:59:06.630Z,669.00
2023-05-02T10:00:06.687Z,671.00
2023-05-02T10:01:06.791Z,675.00
2023-05-02T10:02:06.791Z,672.00
2023-05-02T10:03:06.880Z,676.00
2023-05-02T10:04:06.895Z,677.00
2023-05-02T10:05:06.900Z,677.00
2023-05-02T10:06:07.211Z,674.00
2023-05-02T10:07:06.958Z,672.00
2023-05-02T10:08:07.580Z,663.00
2023-05-02T10:09:07.044Z,658.00
2023-05-02T10:10:07.084Z,657.00
2023-05-02T10:11:07.157Z,656.00
2023-05-02T10:12:07.158Z,649.00
2023-05-02T10:13:07.251Z,654.00
2023-05-02T10:14:07.251Z,657.00
2023-05-02T10:15:08.128Z,656.00
2023-05-02T10:16:07.474Z,655.00
2023-05-02T10:17:07.405Z,654.00
2023-05-02T10:18:07.498Z,652.00
2023-05-02T10:19:07.526Z,647.00
2023-05-02T10:20:07.725Z,644.00
2023-05-02T10:21:07.705Z,641.00
2023-05-02T10:22:07.626Z,640.00
2023-05-02T10:23:07.690Z,635.00
2023-05-02T10:24:07.723Z,631.00
2023-05-02T10:25:07.767Z,630.00
2023-05-02T10:26:08.682Z,625.00
2023-05-02T10:27:07.847Z,620.00
2023-05-02T10:28:07.875Z,619.00
2023-05-02T10:29:07.924Z,617.00
2023-05-02T10:30:07.956Z,615.00
2023-05-02T10:31:08.037Z,615.00
2023-05-02T10:32:08.108Z,610.00
2023-05-02T10:33:08.209Z,611.00
2023-05-02T10:34:08.193Z,609.00
2023-05-02T10:35:08.247Z,607.00
2023-05-02T10:36:08.728Z,601.00
2023-05-02T10:37:08.401Z,600.00
2023-05-02T10:38:08.420Z,602.00
2023-05-02T10:39:08.427Z,604.00
2023-05-02T10:40:08.490Z,602.00
2023-05-02T10:41:08.702Z,614.00
2023-05-02T10:42:08.594Z,694.00
2023-05-02T10:43:08.650Z,733.00
2023-05-02T10:44:08.765Z,745.00
2023-05-02T10:45:09.676Z,767.00
2023-05-02T10:46:08.911Z,758.00
2023-05-02T10:47:08.803Z,784.00
2023-05-02T10:48:09.019Z,780.00
2023-05-02T10:49:08.970Z,782.00
2023-05-02T10:50:08.927Z,767.00
2023-05-02T10:51:08.979Z,768.00
2023-05-02T10:52:09.229Z,769.00
2023-05-02T10:53:09.708Z,770.00
2023-05-02T10:54:09.104Z,771.00
2023-05-02T10:55:09.148Z,728.00
2023-05-02T10:56:09.256Z,740.00
2023-05-02T10:57:09.203Z,775.00
2023-05-02T10:58:09.249Z,785.00
2023-05-02T10:59:09.284Z,781.00
2023-05-02T11:00:09.342Z,774.00
2023-05-02T11:01:09.821Z,768.00
2023-05-02T11:02:09.476Z,756.00
2023-05-02T11:03:09.537Z,761.00
2023-05-02T11:04:09.594Z,797.00
2023-05-02T11:05:09.632Z,795.00
2023-05-02T11:06:09.876Z,805.00
2023-05-02T11:07:09.634Z,844.00
2023-05-02T11:08:09.621Z,814.00
2023-05-02T11:09:09.641Z,830.00
2023-05-02T11:10:09.720Z,833.00
2023-05-02T11:11:09.675Z,855.00
2023-05-02T11:12:09.674Z,861.00
2023-05-02T11:13:09.694Z,860.00
2023-05-02T11:14:09.717Z,860.00
2023-05-02T11:15:09.736Z,876.00
2023-05-02T11:16:10.247Z,874.00
2023-05-02T11:17:09.771Z,823.00
2023-05-02T11:18:09.926Z,826.00
2023-05-02T11:19:09.743Z,813.00
2023-05-02T11:20:09.780Z,805.00
2023-05-02T11:21:09.752Z,800.00
2023-05-02T11:22:09.813Z,797.00
2023-05-02T11:23:09.890Z,804.00
2023-05-02T11:24:09.829Z,802.00
2023-05-02T11:25:09.860Z,903.00
2023-05-02T11:26:09.865Z,945.00
2023-05-02T11:27:09.903Z,945.00
2023-05-02T11:28:09.865Z,1030.00
2023-05-02T11:29:09.894Z,1051.00
2023-05-02T11:30:10.145Z,1131.00
2023-05-02T11:31:09.906Z,1122.00
2023-05-02T11:32:10.272Z,1132.00
2023-05-02T11:33:09.947Z,1143.00
2023-05-02T11:34:10.002Z,1140.00
2023-05-02T11:35:10.083Z,1135.00
2023-05-02T11:36:10.113Z,1129.00
2023-05-02T11:37:10.226Z,1026.00
2023-05-02T11:38:10.213Z,1058.00
2023-05-02T11:39:10.252Z,1056.00
2023-05-02T11:40:10.336Z,1026.00
2023-05-02T11:41:10.332Z,1016.00
2023-05-02T11:42:10.384Z,907.00
2023-05-02T11:43:10.451Z,939.00
2023-05-02T11:44:10.465Z,909.00
2023-05-02T11:45:10.479Z,900.00
2023-05-02T11:46:10.526Z,905.00
2023-05-02T11:47:10.545Z,903.00
2023-05-02T11:48:10.585Z,911.00
2023-05-02T11:49:12.017Z,892.00
2023-05-02T11:50:10.575Z,877.00
2023-05-02T11:51:10.605Z,840.00
2023-05-02T11:52:10.614Z,821.00
2023-05-02T11:53:10.620Z,813.00
2023-05-02T11:54:10.589Z,904.00
2023-05-02T11:55:11.747Z,836.00
2023-05-02T11:56:10.612Z,883.00
2023-05-02T11:57:10.626Z,900.00
2023-05-02T11:58:10.600Z,858.00
2023-05-02T11:59:10.671Z,856.00
2023-05-02T12:00:10.628Z,857.00
2023-05-02T12:01:11.148Z,861.00
2023-05-02T12:02:10.751Z,875.00
2023-05-02T12:03:10.738Z,868.00
2023-05-02T12:04:10.736Z,808.00
2023-05-02T12:05:10.765Z,900.00
2023-05-02T12:06:10.872Z,891.00
2023-05-02T12:07:12.210Z,897.00
2023-05-02T12:08:10.820Z,897.00
2023-05-02T12:09:10.903Z,908.00
2023-05-02T12:10:11.067Z,905.00
2023-05-02T12:11:10.971Z,910.00
2023-05-02T12:12:10.998Z,905.00
2023-05-02T12:13:11.891Z,870.00
2023-05-02T12:14:11.065Z,854.00
2023-05-02T12:15:11.115Z,832.00
2023-05-02T12:16:11.215Z,869.00
2023-05-02T12:17:11.231Z,869.00
2023-05-02T12:18:11.310Z,807.00
2023-05-02T12:19:11.329Z,816.00
2023-05-02T12:20:11.464Z,818.00
2023-05-02T12:21:11.351Z,809.00
2023-05-02T12:22:11.388Z,820.00
2023-05-02T12:23:11.395Z,830.00
2023-05-02T12:24:11.466Z,842.00